Aérodrome :
LOGIN :

S'inscrire | Disclaimer

   EN    FR    IT 

 










Légende :    VFR   VFR Marginal   IFR   IFR Intensif   IFR Très Intensif
Visi : 
Plafond : 
>= 8 km
>= 3000ft
5 à 8 km
1000 à 3000 ft
1500m à 5 km
500 à 1000 ft
800 à 1500m
200 à 500 ft
< 800m
< 200 ft
Symboles :   Orages  Brouillard  Fortes neiges  Fortes précipitations  Vent > 20 kt
SIGMETs :   Divers  Orages  Givrage  Turbulence  Onde Orograph.  Cendres Volcan.






- Altitude de l'aérodrome : 286 ft
- Code IATA : FFD


EGVA - RAF Fairford

DERNIER METAR :
  • 270756Z AUTO 35022G32KT 8000 -RA BR OVC015 01/01 A2934 RMK AO2 PK WND 33041/0659 UPB09E19UPB19E19UPB25E36RAB36 CIG 011 RWY09 SLP943 P0000 T00130012 $

METARs EXPIRÉS :
  • 270750Z AUTO 35019G32KT 3600 -RA BR OVC015 01/01 A2933 RMK AO2 VIS 3600V9999 UPB09E19UPB19E19UPB25E36RAB36 CIG 011 RWY09 PRESRR SLP939 $
  • 270735Z AUTO 35023G35KT 9999 -UP SCT013 OVC019 02/01 A2931 RMK AO2 UPB09E19UPB19E19UPB25 CIG 014V019 SLP932 $
  • 270725Z AUTO 35024G36KT 9999 -UP BKN014 OVC019 02/01 A2931 RMK AO2 UPB09E19UPB19E19UPB25 BKN V OVC SLP932 $
  • 270720Z AUTO 35023G32KT 9999 BKN014 OVC019 02/01 A2930 RMK AO2 UPB09E19UPB19E19 SLP929 $
  • 270709Z AUTO 36022G35KT 9999 -UP OVC016 02/01 A2929 RMK AO2 UPB09 OVC V BKN SLP925 $
  • 270656Z AUTO 35021G33KT 9999 BKN016 OVC024 02/01 A2928 RMK AO2 PK WND 32041/07 RAE27RAB27E27 SLP922 P0000 T00240012 $
  • 270627Z AUTO 35024G33KT 9999 BKN016 03/02 A2926 RMK AO2 RAE27RAB27 SLP915 $
  • 270621Z AUTO 35022G33KT 9999 -RA SCT015 03/02 A2925 RMK AO2 SLP912 $
  • 270611Z AUTO 35023G36KT 9999 -RA BKN015 03/02 A2924 RMK AO2 BKN V SCT SLP908 $
  • 270606Z AUTO 35023G37KT 9999 -RA SCT017 03/02 A2923 RMK AO2 PRESRR SLP905 $

TAF AMD TAF EGVA
Valide du 26 à 12h jusqu'au 27 à 12h UTC


261243Z 2612/2712 28010G18KT 9999 BKN020 520003 QNH2924INS
BECMG 2612/2613 31015G25KT 9999 SCT020 BKN025 520003 QNH2921INS
TEMPO 2613/2616 BKN019
BECMG 2620/2621 34020G35KT 6000 -RASN SCT015 BKN030 OVC060 630303 530003 QNH2919INS
TEMPO 2701/2706 34025G45KT
BECMG 2708/2709 35025G35KT 9999 NSW SCT020 BKN040 530003 QNH2937INS
BECMG 2710/2712 35018G30KT 9999 SCT030 BKN050 530003 QNH2952INS TX08/2612Z TN01/2706Z LAST NO AMDS AFTER 2612 NEXT 2704



MET'MAP, la Météo Aéronautique d'un coup d'oeil ! - Copyright ORBIFLY Décembre 2007 - Disclaimer

ORBIFLY MET'MAP TEAM :

Programmation & Développement : Alexandra Zaïnal
Sur une idée originale de : Baudouin d'Aumeries
Assistance à la programmation : Marc-Olivier Méhu
Soutien technique & logistique : Manuel Goepfert

Contact : metmap@orbifly.com




SOURCES & CREDITS :

   NOAA